createdAt,value
2023-01-15T00:02:08.707Z,90.06
2023-01-15T00:04:37.057Z,89.91
2023-01-15T00:07:05.122Z,87.32
2023-01-15T00:09:33.168Z,88.41
2023-01-15T00:12:02.442Z,87.01
2023-01-15T00:14:30.656Z,88.96
2023-01-15T00:16:58.782Z,89.02
2023-01-15T00:19:27.162Z,93.08
2023-01-15T00:21:55.262Z,91.60
2023-01-15T00:24:42.093Z,89.67
2023-01-15T00:27:43.693Z,90.62
2023-01-15T00:30:14.025Z,91.71
2023-01-15T00:32:43.534Z,89.53
2023-01-15T00:35:16.394Z,89.71
2023-01-15T00:37:44.938Z,92.22
2023-01-15T00:40:14.158Z,92.39
2023-01-15T00:42:42.168Z,90.96
2023-01-15T00:45:13.119Z,90.85
2023-01-15T00:47:43.325Z,89.95
2023-01-15T00:50:15.737Z,90.80
2023-01-15T00:52:44.459Z,89.63
2023-01-15T00:55:12.319Z,90.84
2023-01-15T00:57:40.660Z,87.22
2023-01-15T01:00:09.797Z,88.51
2023-01-15T01:02:37.701Z,87.79
2023-01-15T01:05:06.091Z,90.03
2023-01-15T01:07:34.482Z,89.67
2023-01-15T01:10:02.636Z,87.92
2023-01-15T01:12:30.736Z,89.04
2023-01-15T01:14:59.044Z,89.57
2023-01-15T01:17:27.112Z,88.19
2023-01-15T01:19:55.092Z,86.97
2023-01-15T01:22:23.486Z,88.93
2023-01-15T01:24:51.355Z,88.54
2023-01-15T01:27:19.650Z,87.25
2023-01-15T01:29:47.994Z,88.69
2023-01-15T01:32:15.907Z,88.54
2023-01-15T01:34:43.906Z,86.84
2023-01-15T01:37:12.344Z,88.36
2023-01-15T01:39:40.843Z,90.92
2023-01-15T01:42:17.325Z,89.97
2023-01-15T01:44:46.221Z,89.40
2023-01-15T01:47:23.159Z,88.79
2023-01-15T01:49:58.091Z,87.68
2023-01-15T01:52:30.682Z,87.86
2023-01-15T01:54:59.272Z,85.55
2023-01-15T01:57:27.374Z,86.97
2023-01-15T01:59:56.083Z,88.19
2023-01-15T02:02:24.605Z,90.92
2023-01-15T02:04:53.225Z,89.99
2023-01-15T02:07:21.206Z,92.67
2023-01-15T02:09:49.732Z,91.57
2023-01-15T02:12:26.544Z,91.18
2023-01-15T02:15:03.416Z,94.00
2023-01-15T02:17:54.352Z,91.81
2023-01-15T02:20:29.514Z,90.12
2023-01-15T02:23:12.693Z,91.17
2023-01-15T02:26:18.503Z,93.00
2023-01-15T02:28:49.145Z,93.35
2023-01-15T02:31:23.699Z,92.29
2023-01-15T02:34:14.203Z,94.02
2023-01-15T02:36:47.664Z,94.14
2023-01-15T02:39:19.993Z,90.87
2023-01-15T02:41:52.016Z,90.19
2023-01-15T02:44:22.999Z,91.22
2023-01-15T02:46:54.184Z,91.81
2023-01-15T02:49:23.451Z,91.63
2023-01-15T02:52:05.402Z,91.62
2023-01-15T02:54:45.827Z,92.18
2023-01-15T02:57:15.643Z,91.49
2023-01-15T02:59:49.325Z,91.59
2023-01-15T03:02:21.690Z,91.90
2023-01-15T03:05:08.642Z,90.70
2023-01-15T03:07:47.539Z,92.55
2023-01-15T03:10:16.524Z,93.11
2023-01-15T03:13:02.526Z,92.35
2023-01-15T03:16:16.568Z,92.99
2023-01-15T03:19:20.435Z,93.15
2023-01-15T03:22:11.540Z,92.45
2023-01-15T03:24:52.593Z,92.17
2023-01-15T03:27:22.073Z,91.88
2023-01-15T03:29:58.906Z,91.64
2023-01-15T03:32:27.525Z,92.56
2023-01-15T03:34:56.487Z,91.81
2023-01-15T03:37:27.639Z,91.67
2023-01-15T03:39:57.452Z,92.23
2023-01-15T03:42:50.351Z,94.27
2023-01-15T03:45:32.046Z,93.17
2023-01-15T03:48:09.740Z,95.65
2023-01-15T03:50:38.276Z,93.52
2023-01-15T03:53:09.162Z,92.30
2023-01-15T03:55:55.385Z,92.04
2023-01-15T03:58:35.806Z,92.53
2023-01-15T04:01:11.416Z,92.10
2023-01-15T04:03:40.132Z,93.75
2023-01-15T04:06:10.279Z,92.31
2023-01-15T04:08:40.093Z,91.32
2023-01-15T04:11:09.342Z,90.99
2023-01-15T04:13:38.384Z,90.94
2023-01-15T04:16:07.082Z,92.90
2023-01-15T04:18:36.659Z,92.57
2023-01-15T04:21:05.571Z,90.86
2023-01-15T04:23:34.342Z,91.49
2023-01-15T04:26:02.831Z,91.44
2023-01-15T04:28:30.884Z,92.21
2023-01-15T04:31:00.015Z,93.40
2023-01-15T04:33:28.414Z,95.32
2023-01-15T04:36:00.463Z,94.83
2023-01-15T04:38:29.030Z,96.20
2023-01-15T04:41:20.103Z,95.60
2023-01-15T04:44:06.877Z,94.14
2023-01-15T04:46:42.691Z,92.86
2023-01-15T04:49:14.136Z,95.88
2023-01-15T04:51:42.455Z,94.07
2023-01-15T04:54:12.311Z,94.37
2023-01-15T04:56:48.121Z,94.38
2023-01-15T04:59:17.324Z,93.15
2023-01-15T05:02:01.818Z,94.33
2023-01-15T05:04:32.930Z,93.76
2023-01-15T05:07:03.131Z,92.98
2023-01-15T05:09:31.806Z,93.18
2023-01-15T05:11:59.731Z,95.35
2023-01-15T05:14:27.903Z,93.78
2023-01-15T05:16:56.216Z,93.64
2023-01-15T05:19:24.338Z,91.30
2023-01-15T05:21:53.557Z,93.46
2023-01-15T05:24:21.867Z,95.44
2023-01-15T05:26:49.823Z,94.12
2023-01-15T05:29:17.696Z,93.02
2023-01-15T05:31:46.546Z,94.20
2023-01-15T05:34:14.761Z,94.14
2023-01-15T05:36:42.913Z,94.78
2023-01-15T05:39:11.612Z,94.13
2023-01-15T05:41:49.328Z,96.34
2023-01-15T05:44:33.724Z,95.26
2023-01-15T05:47:07.947Z,97.03
2023-01-15T05:49:36.475Z,97.21
2023-01-15T05:52:04.600Z,96.03
2023-01-15T05:54:34.086Z,94.77
2023-01-15T05:57:02.944Z,94.75
2023-01-15T05:59:32.325Z,95.49
2023-01-15T06:02:00.680Z,96.24
2023-01-15T06:04:29.101Z,97.84
2023-01-15T06:06:58.021Z,98.80
2023-01-15T06:09:28.218Z,99.01
2023-01-15T06:11:56.973Z,98.65
2023-01-15T06:14:25.143Z,99.11
2023-01-15T06:16:53.146Z,98.76
2023-01-15T06:19:21.558Z,99.45
2023-01-15T06:21:49.663Z,100.00
2023-01-15T06:24:18.170Z,98.88
2023-01-15T06:26:46.594Z,98.84
2023-01-15T06:29:17.798Z,100.00
2023-01-15T06:31:45.946Z,98.57
2023-01-15T06:34:14.243Z,98.73
2023-01-15T06:36:42.113Z,99.14
2023-01-15T06:39:10.004Z,98.95
2023-01-15T06:41:57.213Z,99.59
2023-01-15T06:44:54.433Z,97.57
2023-01-15T06:47:23.601Z,97.44
2023-01-15T06:49:55.030Z,99.77
2023-01-15T06:52:28.193Z,99.42
2023-01-15T06:54:56.262Z,98.43
2023-01-15T06:57:24.751Z,99.69
2023-01-15T06:59:52.862Z,98.29
2023-01-15T07:02:22.038Z,100.00
2023-01-15T07:04:51.284Z,100.00
2023-01-15T07:07:20.889Z,100.00
2023-01-15T07:09:49.180Z,100.00
2023-01-15T07:12:17.763Z,100.00
2023-01-15T07:14:45.905Z,100.00
2023-01-15T07:17:14.355Z,100.00
2023-01-15T07:19:43.357Z,100.00
2023-01-15T07:22:11.610Z,100.00
2023-01-15T07:24:39.733Z,100.00
2023-01-15T07:27:08.207Z,100.00
2023-01-15T07:29:36.183Z,100.00
2023-01-15T07:32:04.493Z,100.00
2023-01-15T07:34:32.707Z,100.00
2023-01-15T07:37:00.695Z,100.00
2023-01-15T07:39:28.755Z,100.00
2023-01-15T07:42:15.343Z,100.00
2023-01-15T07:45:04.464Z,100.00
2023-01-15T07:47:51.382Z,100.00
2023-01-15T07:50:23.064Z,100.00
2023-01-15T07:52:53.313Z,100.00
2023-01-15T07:55:22.302Z,100.00
2023-01-15T07:57:50.555Z,100.00
2023-01-15T08:00:22.072Z,100.00
2023-01-15T08:02:51.129Z,100.00
2023-01-15T08:05:19.576Z,100.00
2023-01-15T08:07:47.687Z,100.00
2023-01-15T08:10:16.043Z,100.00
2023-01-15T08:13:02.617Z,100.00
2023-01-15T08:15:33.905Z,100.00
2023-01-15T08:18:01.748Z,100.00
2023-01-15T08:20:29.773Z,100.00
2023-01-15T08:22:58.103Z,100.00
2023-01-15T08:25:26.236Z,100.00
2023-01-15T08:27:54.806Z,100.00
2023-01-15T08:30:25.219Z,100.00
2023-01-15T08:32:53.296Z,100.00
2023-01-15T08:35:21.381Z,100.00
2023-01-15T08:37:49.675Z,100.00
2023-01-15T08:40:17.925Z,100.00
2023-01-15T08:42:45.851Z,100.00
2023-01-15T08:45:15.164Z,100.00
2023-01-15T08:47:43.062Z,100.00
2023-01-15T08:50:11.459Z,100.00
2023-01-15T08:52:39.932Z,100.00
2023-01-15T08:55:08.836Z,100.00
2023-01-15T08:57:38.766Z,100.00
2023-01-15T09:00:08.060Z,100.00
2023-01-15T09:02:36.009Z,100.00
2023-01-15T09:05:04.248Z,100.00
2023-01-15T09:07:32.690Z,100.00
2023-01-15T09:10:00.776Z,100.00
2023-01-15T09:12:29.572Z,100.00
2023-01-15T09:15:02.803Z,100.00
2023-01-15T09:17:32.788Z,99.43
2023-01-15T09:20:03.349Z,100.00
2023-01-15T09:22:31.554Z,99.85
2023-01-15T09:24:59.670Z,99.81
2023-01-15T09:30:21.038Z,100.00
2023-01-15T09:32:49.670Z,99.55
2023-01-15T09:35:17.759Z,97.99
2023-01-15T09:37:51.568Z,98.73
2023-01-15T09:40:47.618Z,98.91
2023-01-15T09:43:50.131Z,97.02
2023-01-15T09:46:23.838Z,97.38
2023-01-15T09:49:04.869Z,97.72
2023-01-15T09:51:54.619Z,96.05
2023-01-15T09:54:43.709Z,96.27
2023-01-15T09:57:16.561Z,93.97
2023-01-15T09:59:49.390Z,93.17
2023-01-15T10:02:23.280Z,90.92
2023-01-15T10:05:16.879Z,91.02
2023-01-15T10:07:57.129Z,91.07
2023-01-15T10:10:34.195Z,89.73
2023-01-15T10:13:19.409Z,88.64
2023-01-15T10:15:48.492Z,90.34
2023-01-15T10:18:21.747Z,88.28
2023-01-15T10:21:24.763Z,86.28
2023-01-15T10:24:15.883Z,86.44
2023-01-15T10:26:53.601Z,86.35
2023-01-15T10:29:46.925Z,87.51
2023-01-15T10:32:39.304Z,87.33
2023-01-15T10:35:28.961Z,87.89
2023-01-15T10:38:06.408Z,85.10
2023-01-15T10:40:57.992Z,86.26
2023-01-15T10:43:40.059Z,84.59
2023-01-15T10:46:19.776Z,85.66
2023-01-15T10:48:52.467Z,82.91
2023-01-15T10:51:50.640Z,82.95
2023-01-15T10:54:42.716Z,84.06
2023-01-15T10:57:23.090Z,82.33
2023-01-15T10:59:59.647Z,83.41
2023-01-15T11:02:35.581Z,80.34
2023-01-15T11:05:04.869Z,80.45
2023-01-15T11:08:39.461Z,78.92
2023-01-15T11:10:47.729Z,79.54
2023-01-15T11:13:42.678Z,77.41
2023-01-15T11:16:26.443Z,76.48
2023-01-15T11:19:12.829Z,77.06
2023-01-15T11:21:43.091Z,78.05
2023-01-15T11:24:16.640Z,77.50
2023-01-15T11:26:52.433Z,77.41
2023-01-15T11:29:38.528Z,77.33
2023-01-15T11:32:20.843Z,76.95
2023-01-15T11:34:57.163Z,76.28
2023-01-15T11:37:26.330Z,76.12
2023-01-15T11:40:06.816Z,73.22
2023-01-15T11:42:57.599Z,73.62
2023-01-15T11:45:45.980Z,74.02
2023-01-15T11:48:41.393Z,75.40
2023-01-15T11:51:16.489Z,76.40
2023-01-15T11:53:48.071Z,74.63
2023-01-15T11:56:24.720Z,73.01
2023-01-15T11:58:55.379Z,73.51
2023-01-15T12:01:32.350Z,71.81
2023-01-15T12:04:02.179Z,72.91
2023-01-15T12:06:30.938Z,73.00
2023-01-15T12:09:13.999Z,72.23
2023-01-15T12:11:48.076Z,72.25
2023-01-15T12:14:40.821Z,72.08
2023-01-15T12:17:37.581Z,71.97
2023-01-15T12:20:22.232Z,71.42
2023-01-15T12:22:56.480Z,72.60
2023-01-15T12:25:39.604Z,72.93
2023-01-15T12:28:35.161Z,72.59
2023-01-15T12:31:11.322Z,72.35
2023-01-15T12:33:55.219Z,72.27
2023-01-15T12:36:35.152Z,70.82
2023-01-15T12:39:30.767Z,70.32
2023-01-15T12:42:21.069Z,71.34
2023-01-15T12:45:04.748Z,71.77
2023-01-15T12:48:04.633Z,71.11
2023-01-15T12:50:39.569Z,71.78
2023-01-15T12:53:22.868Z,70.62
2023-01-15T12:56:02.465Z,69.88
2023-01-15T12:58:51.770Z,68.86
2023-01-15T13:01:56.698Z,70.04
2023-01-15T13:04:37.133Z,70.89
2023-01-15T13:07:17.950Z,70.95
2023-01-15T13:10:07.199Z,70.49
2023-01-15T13:12:36.215Z,69.39
2023-01-15T13:15:05.542Z,69.30
2023-01-15T13:18:14.867Z,70.32
2023-01-15T13:20:51.900Z,69.17
2023-01-15T13:23:31.985Z,70.46
2023-01-15T13:26:06.154Z,69.88
2023-01-15T13:28:50.850Z,70.53
2023-01-15T13:31:50.855Z,70.43
2023-01-15T13:34:33.789Z,68.49
2023-01-15T13:37:17.049Z,69.71
2023-01-15T13:39:45.842Z,68.96
2023-01-15T13:42:37.190Z,68.87
2023-01-15T13:45:27.001Z,70.27
2023-01-15T13:48:21.203Z,70.01
2023-01-15T13:50:53.781Z,69.56
2023-01-15T13:53:40.509Z,71.92
2023-01-15T13:56:12.828Z,70.59
2023-01-15T13:58:54.965Z,70.69
2023-01-15T14:01:25.933Z,70.89
2023-01-15T14:04:17.639Z,71.09
2023-01-15T14:06:50.699Z,70.68
2023-01-15T14:09:25.257Z,71.77
2023-01-15T14:12:14.280Z,71.72
2023-01-15T14:15:01.270Z,71.44
2023-01-15T14:17:48.116Z,71.29
2023-01-15T14:20:55.849Z,70.92
2023-01-15T14:23:53.852Z,71.66
2023-01-15T14:26:41.069Z,71.00
2023-01-15T14:29:29.490Z,70.47
2023-01-15T14:32:05.127Z,70.65
2023-01-15T14:34:35.002Z,71.22
2023-01-15T14:37:05.850Z,70.17
2023-01-15T14:39:55.841Z,69.86
2023-01-15T14:42:46.351Z,70.02
2023-01-15T14:45:14.293Z,71.09
2023-01-15T14:47:55.860Z,70.59
2023-01-15T14:50:44.063Z,70.03
2023-01-15T14:53:13.620Z,69.98
2023-01-15T14:55:56.322Z,69.41
2023-01-15T14:58:31.088Z,70.91
2023-01-15T15:01:04.038Z,70.56
2023-01-15T15:03:38.146Z,71.49
2023-01-15T15:06:07.316Z,72.16
2023-01-15T15:08:36.120Z,72.52
2023-01-15T15:11:25.335Z,70.72
2023-01-15T15:13:56.711Z,70.89
2023-01-15T15:16:29.181Z,70.11
2023-01-15T15:19:05.621Z,71.81
2023-01-15T15:21:40.115Z,71.68
2023-01-15T15:24:20.744Z,71.55
2023-01-15T15:26:48.922Z,73.09
2023-01-15T15:29:19.280Z,72.31
2023-01-15T15:31:49.691Z,72.48
2023-01-15T15:34:29.455Z,71.85
2023-01-15T15:37:01.262Z,72.03
2023-01-15T15:40:02.338Z,73.80
2023-01-15T15:42:56.734Z,72.88
2023-01-15T15:45:46.734Z,73.00
2023-01-15T15:48:38.110Z,73.82
2023-01-15T15:51:31.423Z,73.29
2023-01-15T15:54:16.411Z,71.22
2023-01-15T15:56:59.888Z,73.89
2023-01-15T15:59:36.171Z,73.97
2023-01-15T16:02:53.959Z,71.81
2023-01-15T16:05:25.395Z,71.91
2023-01-15T16:07:56.867Z,73.35
2023-01-15T16:10:29.189Z,72.61
2023-01-15T16:13:00.320Z,73.59
2023-01-15T16:15:34.620Z,73.50
2023-01-15T16:18:03.219Z,73.88
2023-01-15T16:20:32.834Z,73.25
2023-01-15T16:23:05.871Z,73.83
2023-01-15T16:25:42.118Z,73.98
2023-01-15T16:28:28.311Z,72.91
2023-01-15T16:31:02.893Z,73.29
2023-01-15T16:33:31.408Z,72.68
2023-01-15T16:36:04.767Z,72.73
2023-01-15T16:38:37.000Z,73.86
2023-01-15T16:41:05.587Z,72.98
2023-01-15T16:43:51.261Z,74.01
2023-01-15T16:46:20.866Z,72.93
2023-01-15T16:48:49.430Z,73.22
2023-01-15T16:51:30.732Z,75.14
2023-01-15T16:54:04.528Z,75.72
2023-01-15T16:56:36.368Z,75.98
2023-01-15T16:59:06.398Z,77.22
2023-01-15T17:01:35.283Z,76.73
2023-01-15T17:04:04.849Z,76.50
2023-01-15T17:06:33.738Z,79.49
2023-01-15T17:09:01.761Z,78.68
2023-01-15T17:11:31.028Z,78.74
2023-01-15T17:14:20.297Z,78.96
2023-01-15T17:16:48.670Z,78.62
2023-01-15T17:19:17.899Z,80.56
2023-01-15T17:21:47.690Z,78.11
2023-01-15T17:24:15.854Z,81.65
2023-01-15T17:26:44.241Z,81.89
2023-01-15T17:29:12.561Z,80.75
2023-01-15T17:31:40.571Z,81.71
2023-01-15T17:34:10.864Z,80.99
2023-01-15T17:36:38.843Z,84.22
2023-01-15T17:39:06.739Z,83.97
2023-01-15T17:41:35.106Z,84.08
2023-01-15T17:44:04.301Z,85.09
2023-01-15T17:46:32.660Z,83.02
2023-01-15T17:49:01.013Z,84.15
2023-01-15T17:51:30.523Z,83.94
2023-01-15T17:53:58.593Z,84.15
2023-01-15T17:56:45.745Z,83.53
2023-01-15T17:59:34.064Z,82.26
2023-01-15T18:02:21.172Z,82.27
2023-01-15T18:05:10.659Z,81.82
2023-01-15T18:07:41.424Z,81.66
2023-01-15T18:10:11.701Z,81.70
2023-01-15T18:12:39.773Z,79.74
2023-01-15T18:15:08.131Z,80.23
2023-01-15T18:17:36.687Z,81.67
2023-01-15T18:20:05.422Z,83.80
2023-01-15T18:22:33.366Z,81.90
2023-01-15T18:25:01.681Z,83.49
2023-01-15T18:27:30.527Z,83.44
2023-01-15T18:29:59.687Z,82.76
2023-01-15T18:32:30.455Z,81.82
2023-01-15T18:34:58.540Z,87.49
2023-01-15T18:37:26.545Z,83.37
2023-01-15T18:39:54.968Z,85.77
2023-01-15T18:42:41.404Z,85.54
2023-01-15T18:45:28.999Z,87.22
2023-01-15T18:47:56.756Z,86.34
2023-01-15T18:50:25.805Z,83.92
2023-01-15T18:52:53.759Z,83.84
2023-01-15T18:55:26.557Z,84.87
2023-01-15T18:57:55.709Z,85.11
2023-01-15T19:00:24.860Z,84.04
2023-01-15T19:02:52.943Z,86.82
2023-01-15T19:05:21.301Z,88.15
2023-01-15T19:07:49.347Z,90.93
2023-01-15T19:10:18.364Z,89.95
2023-01-15T19:12:46.906Z,89.63
2023-01-15T19:15:36.374Z,92.78
2023-01-15T19:18:24.106Z,87.89
2023-01-15T19:20:52.177Z,85.66
2023-01-15T19:23:21.180Z,90.55
2023-01-15T19:25:49.851Z,88.65
2023-01-15T19:28:20.291Z,88.96
2023-01-15T19:31:12.222Z,89.79
2023-01-15T19:33:40.291Z,89.78
2023-01-15T19:36:08.964Z,87.96
2023-01-15T19:38:42.662Z,86.78
2023-01-15T19:41:31.060Z,81.69
2023-01-15T19:44:17.633Z,82.92
2023-01-15T19:47:04.557Z,80.95
2023-01-15T19:49:54.222Z,80.28
2023-01-15T19:52:34.829Z,80.47
2023-01-15T19:55:04.577Z,83.39
2023-01-15T19:57:32.969Z,86.30
2023-01-15T20:00:01.111Z,86.32
2023-01-15T20:02:29.243Z,87.86
2023-01-15T20:04:57.665Z,88.05
2023-01-15T20:07:25.789Z,89.25
2023-01-15T20:09:53.860Z,88.53
2023-01-15T20:12:40.799Z,86.56
2023-01-15T20:15:09.746Z,84.48
2023-01-15T20:17:38.193Z,86.06
2023-01-15T20:20:07.091Z,83.16
2023-01-15T20:22:35.259Z,83.99
2023-01-15T20:25:04.015Z,86.95
2023-01-15T20:27:34.840Z,89.17
2023-01-15T20:30:10.302Z,90.10
2023-01-15T20:32:41.374Z,89.19
2023-01-15T20:35:12.839Z,90.13
2023-01-15T20:37:40.980Z,89.58
2023-01-15T20:40:09.994Z,89.41
2023-01-15T20:42:56.541Z,88.53
2023-01-15T20:45:25.377Z,88.54
2023-01-15T20:48:11.758Z,85.09
2023-01-15T20:51:01.125Z,87.38
2023-01-15T20:53:33.965Z,88.96
2023-01-15T20:56:03.362Z,85.96
2023-01-15T20:58:31.273Z,86.94
2023-01-15T21:01:09.312Z,86.05
2023-01-15T21:03:38.859Z,87.29
2023-01-15T21:06:08.265Z,86.30
2023-01-15T21:08:36.372Z,87.67
2023-01-15T21:11:05.000Z,85.76
2023-01-15T21:13:32.995Z,84.02
2023-01-15T21:16:05.442Z,82.76
2023-01-15T21:18:37.490Z,85.21
2023-01-15T21:21:13.730Z,83.44
2023-01-15T21:23:45.747Z,84.51
2023-01-15T21:26:14.819Z,83.50
2023-01-15T21:28:44.452Z,84.68
2023-01-15T21:31:13.745Z,85.53
2023-01-15T21:33:41.867Z,84.07
2023-01-15T21:36:12.911Z,87.05
2023-01-15T21:38:41.195Z,85.21
2023-01-15T21:41:14.330Z,83.26
2023-01-15T21:44:01.873Z,85.05
2023-01-15T21:46:30.273Z,85.00
2023-01-15T21:48:59.527Z,84.31
2023-01-15T21:51:27.723Z,89.32
2023-01-15T21:54:00.108Z,87.04
2023-01-15T21:56:28.895Z,90.71
2023-01-15T21:58:57.430Z,90.48
2023-01-15T22:01:26.223Z,90.15
2023-01-15T22:03:54.758Z,88.57
2023-01-15T22:06:22.610Z,88.10
2023-01-15T22:08:54.833Z,84.64
2023-01-15T22:11:23.957Z,86.42
2023-01-15T22:13:53.142Z,85.28
2023-01-15T22:16:21.111Z,85.53
2023-01-15T22:18:50.572Z,91.60
2023-01-15T22:21:18.636Z,89.93
2023-01-15T22:23:49.113Z,91.82
2023-01-15T22:26:19.189Z,89.62
2023-01-15T22:28:48.268Z,88.16
2023-01-15T22:31:18.062Z,88.26
2023-01-15T22:33:46.820Z,84.74
2023-01-15T22:36:15.869Z,79.53
2023-01-15T22:38:44.588Z,81.17
2023-01-15T22:41:13.080Z,80.93
2023-01-15T22:43:41.335Z,84.15
2023-01-15T22:46:14.801Z,80.81
2023-01-15T22:48:43.527Z,81.52
2023-01-15T22:51:11.569Z,78.41
2023-01-15T22:53:39.531Z,79.27
2023-01-15T22:56:07.931Z,80.95
2023-01-15T22:58:36.536Z,80.62
2023-01-15T23:01:05.697Z,82.66
2023-01-15T23:03:35.453Z,83.40
2023-01-15T23:06:09.959Z,85.57
2023-01-15T23:08:38.777Z,89.31
2023-01-15T23:11:15.739Z,85.42
2023-01-15T23:13:44.739Z,85.20
2023-01-15T23:16:12.904Z,85.83
2023-01-15T23:18:40.820Z,85.70
2023-01-15T23:21:11.629Z,85.19
2023-01-15T23:23:40.040Z,85.91
2023-01-15T23:26:11.731Z,88.61
2023-01-15T23:28:40.837Z,88.30
2023-01-15T23:31:10.986Z,89.80
2023-01-15T23:33:38.939Z,88.87
2023-01-15T23:36:09.788Z,88.28
2023-01-15T23:38:41.871Z,88.29
2023-01-15T23:41:14.308Z,88.61
2023-01-15T23:44:01.729Z,88.08
2023-01-15T23:46:32.968Z,88.60
2023-01-15T23:49:06.864Z,89.08
2023-01-15T23:51:36.077Z,88.12
2023-01-15T23:54:05.638Z,87.75
2023-01-15T23:56:33.986Z,87.66
2023-01-15T23:59:01.898Z,87.49
